sensor_id;sensor_type;location;lat;lon;timestamp;P1;durP1;ratioP1;P2;durP2;ratioP2
71648;SDS011;70112;45.624;11.760;2023-12-22T16:53:03;72.20;;;51.20;;
71648;SDS011;70112;45.624;11.760;2023-12-22T16:55:29;83.40;;;53.00;;
71648;SDS011;70112;45.624;11.760;2023-12-22T16:58:36;65.50;;;48.40;;
71648;SDS011;70112;45.624;11.760;2023-12-22T17:01:28;68.40;;;47.10;;
71648;SDS011;70112;45.624;11.760;2023-12-22T17:03:54;57.80;;;42.30;;
71648;SDS011;70112;45.624;11.760;2023-12-22T17:06:23;65.30;;;44.20;;
71648;SDS011;70112;45.624;11.760;2023-12-22T17:11:58;53.80;;;38.80;;
71648;SDS011;70112;45.624;11.760;2023-12-22T17:14:24;65.90;;;42.80;;
71648;SDS011;70112;45.624;11.760;2023-12-22T17:16:55;61.50;;;43.50;;
71648;SDS011;70112;45.624;11.760;2023-12-22T17:19:21;83.10;;;49.30;;
71648;SDS011;70112;45.624;11.760;2023-12-22T17:21:53;68.00;;;49.10;;
71648;SDS011;70112;45.624;11.760;2023-12-22T17:27:37;76.00;;;48.90;;
71648;SDS011;70112;45.624;11.760;2023-12-22T17:30:06;69.70;;;48.10;;
71648;SDS011;70112;45.624;11.760;2023-12-22T17:32:42;73.40;;;49.80;;
71648;SDS011;70112;45.624;11.760;2023-12-22T17:35:17;76.60;;;50.60;;
71648;SDS011;70112;45.624;11.760;2023-12-22T17:38:02;73.10;;;51.10;;
71648;SDS011;70112;45.624;11.760;2023-12-22T17:40:48;79.70;;;53.60;;
71648;SDS011;70112;45.624;11.760;2023-12-22T17:43:34;94.10;;;59.90;;
71648;SDS011;70112;45.624;11.760;2023-12-22T17:46:00;97.90;;;62.00;;
71648;SDS011;70112;45.624;11.760;2023-12-22T17:48:28;108.40;;;71.40;;
71648;SDS011;70112;45.624;11.760;2023-12-22T17:50:56;86.70;;;58.40;;
71648;SDS011;70112;45.624;11.760;2023-12-22T17:53:25;99.00;;;62.00;;
71648;SDS011;70112;45.624;11.760;2023-12-22T17:55:54;94.10;;;63.20;;
71648;SDS011;70112;45.624;11.760;2023-12-22T17:58:20;100.00;;;63.60;;
71648;SDS011;70112;45.624;11.760;2023-12-22T18:00:51;90.90;;;59.80;;
71648;SDS011;70112;45.624;11.760;2023-12-22T18:03:25;84.50;;;58.90;;
71648;SDS011;70112;45.624;11.760;2023-12-22T18:05:57;76.10;;;55.60;;
71648;SDS011;70112;45.624;11.760;2023-12-22T18:08:24;95.60;;;61.40;;
71648;SDS011;70112;45.624;11.760;2023-12-22T18:10:49;143.70;;;82.20;;
71648;SDS011;70112;45.624;11.760;2023-12-22T18:13:15;124.10;;;76.80;;
71648;SDS011;70112;45.624;11.760;2023-12-22T18:15:41;102.80;;;66.80;;
71648;SDS011;70112;45.624;11.760;2023-12-22T18:18:07;118.10;;;73.50;;
71648;SDS011;70112;45.624;11.760;2023-12-22T18:20:35;164.30;;;90.00;;
71648;SDS011;70112;45.624;11.760;2023-12-22T18:23:04;168.00;;;89.20;;
71648;SDS011;70112;45.624;11.760;2023-12-22T18:25:33;175.40;;;89.20;;
71648;SDS011;70112;45.624;11.760;2023-12-22T18:31:25;126.70;;;68.70;;
71648;SDS011;70112;45.624;11.760;2023-12-22T18:34:17;97.20;;;61.00;;
71648;SDS011;70112;45.624;11.760;2023-12-22T18:36:53;90.80;;;56.50;;
71648;SDS011;70112;45.624;11.760;2023-12-22T18:39:39;96.10;;;57.40;;
71648;SDS011;70112;45.624;11.760;2023-12-22T18:42:06;106.50;;;62.80;;
71648;SDS011;70112;45.624;11.760;2023-12-22T18:44:35;98.60;;;58.80;;
71648;SDS011;70112;45.624;11.760;2023-12-22T18:47:03;104.00;;;60.40;;
71648;SDS011;70112;45.624;11.760;2023-12-22T18:49:29;106.90;;;66.90;;
71648;SDS011;70112;45.624;11.760;2023-12-22T18:51:58;122.40;;;68.60;;
71648;SDS011;70112;45.624;11.760;2023-12-22T18:54:27;114.10;;;68.40;;
71648;SDS011;70112;45.624;11.760;2023-12-22T18:56:52;128.10;;;74.60;;
71648;SDS011;70112;45.624;11.760;2023-12-22T18:59:20;103.00;;;64.10;;
71648;SDS011;70112;45.624;11.760;2023-12-22T19:01:46;111.10;;;64.60;;
71648;SDS011;70112;45.624;11.760;2023-12-22T19:04:12;105.90;;;64.70;;
71648;SDS011;70112;45.624;11.760;2023-12-22T19:06:44;121.20;;;70.70;;
71648;SDS011;70112;45.624;11.760;2023-12-22T19:09:23;99.70;;;62.70;;
71648;SDS011;70112;45.624;11.760;2023-12-22T19:15:03;147.80;;;80.80;;
71648;SDS011;70112;45.624;11.760;2023-12-22T19:18:03;139.70;;;77.50;;
71648;SDS011;70112;45.624;11.760;2023-12-22T19:24:42;168.50;;;87.00;;
71648;SDS011;70112;45.624;11.760;2023-12-22T19:27:17;161.10;;;83.00;;
71648;SDS011;70112;45.624;11.760;2023-12-22T19:29:48;162.10;;;88.60;;
71648;SDS011;70112;45.624;11.760;2023-12-22T19:32:32;205.40;;;102.00;;
71648;SDS011;70112;45.624;11.760;2023-12-22T19:34:58;173.70;;;92.10;;
71648;SDS011;70112;45.624;11.760;2023-12-22T19:37:24;156.50;;;81.70;;
71648;SDS011;70112;45.624;11.760;2023-12-22T19:39:58;146.70;;;83.00;;
71648;SDS011;70112;45.624;11.760;2023-12-22T19:45:51;175.60;;;95.10;;
71648;SDS011;70112;45.624;11.760;2023-12-22T19:48:37;150.70;;;83.90;;
71648;SDS011;70112;45.624;11.760;2023-12-22T19:51:25;142.90;;;81.40;;
71648;SDS011;70112;45.624;11.760;2023-12-22T19:53:55;156.80;;;88.10;;
71648;SDS011;70112;45.624;11.760;2023-12-22T19:56:44;175.20;;;98.50;;
71648;SDS011;70112;45.624;11.760;2023-12-22T19:59:43;201.60;;;112.10;;
71648;SDS011;70112;45.624;11.760;2023-12-22T20:02:12;182.90;;;105.40;;
71648;SDS011;70112;45.624;11.760;2023-12-22T20:05:01;158.40;;;91.30;;
71648;SDS011;70112;45.624;11.760;2023-12-22T20:07:32;160.60;;;93.40;;
71648;SDS011;70112;45.624;11.760;2023-12-22T20:10:18;155.40;;;91.40;;
71648;SDS011;70112;45.624;11.760;2023-12-22T20:13:09;153.10;;;89.10;;
71648;SDS011;70112;45.624;11.760;2023-12-22T20:16:01;170.40;;;98.20;;
71648;SDS011;70112;45.624;11.760;2023-12-22T20:18:31;164.40;;;92.70;;
71648;SDS011;70112;45.624;11.760;2023-12-22T20:21:17;163.20;;;92.40;;
71648;SDS011;70112;45.624;11.760;2023-12-22T20:24:13;147.90;;;87.00;;
71648;SDS011;70112;45.624;11.760;2023-12-22T20:26:41;158.60;;;90.20;;
71648;SDS011;70112;45.624;11.760;2023-12-22T20:29:13;147.70;;;86.70;;
71648;SDS011;70112;45.624;11.760;2023-12-22T20:31:39;152.00;;;89.50;;
71648;SDS011;70112;45.624;11.760;2023-12-22T20:34:05;145.60;;;86.10;;
71648;SDS011;70112;45.624;11.760;2023-12-22T20:36:39;149.50;;;87.80;;
71648;SDS011;70112;45.624;11.760;2023-12-22T20:39:06;143.50;;;85.00;;
71648;SDS011;70112;45.624;11.760;2023-12-22T20:41:32;140.40;;;87.00;;
71648;SDS011;70112;45.624;11.760;2023-12-22T20:43:58;143.00;;;86.70;;
71648;SDS011;70112;45.624;11.760;2023-12-22T20:46:53;140.50;;;86.30;;
71648;SDS011;70112;45.624;11.760;2023-12-22T20:49:20;141.10;;;83.60;;
71648;SDS011;70112;45.624;11.760;2023-12-22T20:51:58;133.20;;;80.20;;
71648;SDS011;70112;45.624;11.760;2023-12-22T20:54:27;151.30;;;85.60;;
71648;SDS011;70112;45.624;11.760;2023-12-22T20:57:13;146.30;;;85.50;;
71648;SDS011;70112;45.624;11.760;2023-12-22T20:59:44;145.10;;;85.30;;
71648;SDS011;70112;45.624;11.760;2023-12-22T21:02:14;170.60;;;92.90;;
71648;SDS011;70112;45.624;11.760;2023-12-22T21:04:40;167.40;;;91.30;;
71648;SDS011;70112;45.624;11.760;2023-12-22T21:07:23;145.70;;;83.80;;
71648;SDS011;70112;45.624;11.760;2023-12-22T21:10:12;143.00;;;84.50;;
71648;SDS011;70112;45.624;11.760;2023-12-22T21:15:59;121.80;;;73.00;;
71648;SDS011;70112;45.624;11.760;2023-12-22T21:18:30;124.60;;;74.00;;
71648;SDS011;70112;45.624;11.760;2023-12-22T21:20:58;111.40;;;67.70;;
71648;SDS011;70112;45.624;11.760;2023-12-22T21:24:10;115.00;;;69.00;;
71648;SDS011;70112;45.624;11.760;2023-12-22T21:26:36;121.90;;;71.90;;
71648;SDS011;70112;45.624;11.760;2023-12-22T21:29:06;123.10;;;75.20;;
71648;SDS011;70112;45.624;11.760;2023-12-22T21:31:31;127.90;;;75.80;;
71648;SDS011;70112;45.624;11.760;2023-12-22T21:33:59;123.30;;;77.90;;
71648;SDS011;70112;45.624;11.760;2023-12-22T21:36:55;116.00;;;70.20;;
71648;SDS011;70112;45.624;11.760;2023-12-22T21:39:31;124.50;;;73.80;;
71648;SDS011;70112;45.624;11.760;2023-12-22T21:42:00;130.40;;;77.90;;
71648;SDS011;70112;45.624;11.760;2023-12-22T21:44:50;129.10;;;78.10;;
71648;SDS011;70112;45.624;11.760;2023-12-22T21:47:27;114.40;;;69.30;;
71648;SDS011;70112;45.624;11.760;2023-12-22T21:50:23;109.90;;;65.80;;
71648;SDS011;70112;45.624;11.760;2023-12-22T21:52:52;110.20;;;68.20;;
71648;SDS011;70112;45.624;11.760;2023-12-22T21:55:50;117.70;;;72.50;;
71648;SDS011;70112;45.624;11.760;2023-12-22T21:58:16;115.00;;;70.60;;
71648;SDS011;70112;45.624;11.760;2023-12-22T22:00:42;107.40;;;67.60;;
71648;SDS011;70112;45.624;11.760;2023-12-22T22:03:28;111.80;;;68.40;;
71648;SDS011;70112;45.624;11.760;2023-12-22T22:05:54;116.90;;;73.00;;
71648;SDS011;70112;45.624;11.760;2023-12-22T22:08:30;114.30;;;71.80;;
71648;SDS011;70112;45.624;11.760;2023-12-22T22:10:57;103.30;;;64.70;;
71648;SDS011;70112;45.624;11.760;2023-12-22T22:13:23;105.30;;;64.70;;
71648;SDS011;70112;45.624;11.760;2023-12-22T22:15:49;107.10;;;67.90;;
71648;SDS011;70112;45.624;11.760;2023-12-22T22:18:15;102.30;;;64.10;;
71648;SDS011;70112;45.624;11.760;2023-12-22T22:20:43;103.70;;;66.10;;
71648;SDS011;70112;45.624;11.760;2023-12-22T22:23:12;96.50;;;60.60;;
71648;SDS011;70112;45.624;11.760;2023-12-22T22:25:38;150.40;;;77.80;;
71648;SDS011;70112;45.624;11.760;2023-12-22T22:28:04;121.00;;;69.00;;
71648;SDS011;70112;45.624;11.760;2023-12-22T22:30:30;122.40;;;68.40;;
71648;SDS011;70112;45.624;11.760;2023-12-22T22:32:59;116.70;;;70.30;;
71648;SDS011;70112;45.624;11.760;2023-12-22T22:35:43;142.50;;;78.20;;
71648;SDS011;70112;45.624;11.760;2023-12-22T22:38:12;128.50;;;72.60;;
71648;SDS011;70112;45.624;11.760;2023-12-22T22:40:43;131.60;;;76.10;;
71648;SDS011;70112;45.624;11.760;2023-12-22T22:43:11;116.10;;;66.90;;
71648;SDS011;70112;45.624;11.760;2023-12-22T22:45:37;107.50;;;65.20;;
71648;SDS011;70112;45.624;11.760;2023-12-22T22:48:04;92.90;;;60.50;;
71648;SDS011;70112;45.624;11.760;2023-12-22T22:50:30;116.80;;;67.60;;
71648;SDS011;70112;45.624;11.760;2023-12-22T22:52:59;88.50;;;60.00;;
71648;SDS011;70112;45.624;11.760;2023-12-22T22:55:28;86.00;;;54.30;;
71648;SDS011;70112;45.624;11.760;2023-12-22T22:57:54;88.30;;;59.70;;
71648;SDS011;70112;45.624;11.760;2023-12-22T23:00:24;124.60;;;70.60;;
71648;SDS011;70112;45.624;11.760;2023-12-22T23:02:54;104.50;;;61.50;;
71648;SDS011;70112;45.624;11.760;2023-12-22T23:05:43;104.70;;;61.10;;
71648;SDS011;70112;45.624;11.760;2023-12-22T23:08:09;114.60;;;62.80;;
71648;SDS011;70112;45.624;11.760;2023-12-22T23:10:35;123.60;;;62.90;;
71648;SDS011;70112;45.624;11.760;2023-12-22T23:13:03;111.00;;;64.50;;
71648;SDS011;70112;45.624;11.760;2023-12-22T23:15:29;97.50;;;56.70;;
71648;SDS011;70112;45.624;11.760;2023-12-22T23:17:55;93.60;;;56.80;;
71648;SDS011;70112;45.624;11.760;2023-12-22T23:20:30;91.70;;;56.50;;
71648;SDS011;70112;45.624;11.760;2023-12-22T23:26:32;81.10;;;50.40;;
71648;SDS011;70112;45.624;11.760;2023-12-22T23:29:07;95.00;;;58.50;;
71648;SDS011;70112;45.624;11.760;2023-12-22T23:31:33;92.80;;;57.00;;
71648;SDS011;70112;45.624;11.760;2023-12-22T23:33:59;88.90;;;58.20;;
71648;SDS011;70112;45.624;11.760;2023-12-22T23:37:08;99.00;;;56.70;;
71648;SDS011;70112;45.624;11.760;2023-12-22T23:42:45;89.50;;;54.20;;
71648;SDS011;70112;45.624;11.760;2023-12-22T23:45:31;92.80;;;54.10;;
71648;SDS011;70112;45.624;11.760;2023-12-22T23:48:05;90.90;;;56.30;;
71648;SDS011;70112;45.624;11.760;2023-12-22T23:50:51;99.20;;;58.60;;
71648;SDS011;70112;45.624;11.760;2023-12-22T23:53:20;111.20;;;61.90;;
71648;SDS011;70112;45.624;11.760;2023-12-22T23:55:49;97.60;;;60.40;;
71648;SDS011;70112;45.624;11.760;2023-12-22T23:58:42;99.90;;;58.60;;
